Sonic Adventure (DX): Overall Rankings

Records: Times | Rings | Scores | Races | Bosses | Freestyle
Leaders: Times | Rings | Scores | Races | Bosses | Freestyle | Overall
Rank Player Percent Points Date
1 Sonicspeedruner 97.9% 374 04-22-22
2 Gamepro011 97.6% 434 04-22-22
3 DarkPolarNight 96.2% 680 04-22-22
4 Jawzun 92.7% 1331 04-22-22
5 Dashjump 91.1% 1619 04-22-22
6 Avento128bits 89.2% 1972 04-22-22
7 DarkspinesSonic 89.1% 1987 04-22-22
8 ike6252 88.9% 2025 04-22-22
9 F-Man 87.0% 2364 04-22-22
10 Coolfansonic 86.9% 2391 04-22-22
11 TheRealShadnic 85.0% 2736 04-22-22
12 HyperSonic7701 84.3% 2873 04-22-22
13 Nim 83.9% 2945 04-22-22
14 yoshifan 82.1% 3272 04-22-22
15 frankoredstrato 81.6% 3356 04-22-22
16 francisco 80.7% 3525 04-22-22
17 Marth 80.3% 3595 04-22-22
18 InferSaime 79.2% 3804 04-22-22
19 PfoSonic 78.7% 3899 04-22-22
20 Paragod 78.3% 3969 04-22-22
21 THC98 77.4% 4126 04-22-22
22 Stefan 75.0% 4571 04-22-22
23 Dekuboy 73.9% 4778 04-22-22
24 RPGnutter 73.0% 4936 04-22-22
25 bertin 72.8% 4983 04-22-22
26 sonicam 70.8% 5346 04-22-22
27 chaos shadow 69.9% 5500 04-22-22
28 drminus 69.2% 5641 04-22-22
29 chainchump 65.3% 6356 04-22-22
30 Combo 64.8% 6432 04-22-22
31 SkyLights 63.6% 6659 04-22-22
32 xXMegaManXx 62.0% 6945 04-22-22
33 Diamond 61.7% 7015 04-22-22
34 Auriman1 59.6% 7393 04-22-22
35 GerbilSoft 59.6% 7400 04-22-22
36 OmegaDJ 59.5% 7419 04-22-22
37 CoEmpathy 59.5% 7420 04-22-22
38 magnum12 58.7% 7549 04-22-22
39 Thorn 56.5% 7966 04-22-22
40 P1 Pause 56.2% 8014 04-22-22
41 mike89 55.1% 8225 04-22-22
42 Dave Cramer 53.3% 8552 04-22-22
43 Groudon199 53.0% 8595 04-22-22
44 Parax 52.5% 8689 04-22-22
45 SPVLABS 52.1% 8765 04-22-22
46 Shadow Jacky 52.1% 8769 04-22-22
47 Zurggriff 48.6% 9409 04-22-22
48 Niczur 47.0% 9694 04-22-22
49 Psymar 47.0% 9707 04-22-22
50 Arch 46.2% 9850 04-22-22
51 Chao_Fan 45.4% 9990 04-22-22
52 mauserman 44.8% 10111 04-22-22
53 Quartz 44.2% 10217 04-22-22
54 teamblackarms 43.6% 10324 04-22-22
55 Psyknux 42.8% 10475 04-22-22
56 Cyan Ryan 42.3% 10567 04-22-22
57 James_Bertolli 42.2% 10576 04-22-22
58 NintenDan 42.0% 10620 04-22-22
59 Turbos 41.3% 10740 04-22-22
60 Webber3000 41.3% 10744 04-22-22
61 Ring Rush 41.2% 10773 04-22-22
62 Cream147 40.9% 10813 04-22-22
63 Fr3nZy 40.9% 10817 04-22-22
64 Siavash Tazari 40.8% 10830 04-22-22
65 videogamemaster777 40.8% 10838 04-22-22
66 buddychaos0415 40.2% 10952 04-22-22
67 SadisticMystic 39.6% 11063 04-22-22
68 ethmar 39.1% 11149 04-22-22
69 eggFL 38.8% 11204 04-22-22
70 Calfd 38.0% 11354 04-22-22
71 SB737 37.2% 11503 04-22-22
72 supersonic465 36.8% 11576 04-22-22
73 supersonicfan 36.2% 11689 04-22-22
74 FuzZerd 34.8% 11928 04-22-22
75 Aitamen 34.5% 11992 04-22-22
76 BigAL49 34.1% 12062 04-22-22
77 danieldude 34.0% 12087 04-22-22
78 elecmouse101 34.0% 12092 04-22-22
79 Austinf 33.2% 12230 04-22-22
80 metanightmare22 32.9% 12284 04-22-22
81 dabestgamer 32.6% 12334 04-22-22
82 MiStEr_ShAoLiN 32.2% 12404 04-22-22
83 Mastakirby 31.5% 12540 04-22-22
84 Andrea Ritsu 31.5% 12547 04-22-22
85 itsPersonnal 31.2% 12602 04-22-22
86 JamminX42 30.5% 12731 04-22-22
87 Cybrax 30.4% 12742 04-22-22
88 SilvertheAlmighty 30.4% 12746 04-22-22
89 WeegeeZV 30.3% 12769 04-22-22
90 VMU Player Banned 28.4% 13117 04-22-22
91 Staf 28.0% 13187 04-22-22
92 Omega Rafael Santos 27.8% 13224 04-22-22
93 The T 27.5% 13267 04-22-22
94 EngiNerd 27.4% 13301 04-22-22
95 lordmetalsonic 26.9% 13380 04-22-22
96 Hipertails12 26.5% 13462 04-22-22
97 welldooder64 26.3% 13499 04-22-22
98 GreatStar 26.0% 13548 04-22-22
99 The Great Lord Mick 25.9% 13562 04-22-22
100 Sondow 25.8% 13589 04-22-22
101 LinksDarkArrows 25.7% 13609 04-22-22
102 Skylace 24.6% 13798 04-22-22
103 a_moustache 23.8% 13960 04-22-22
104 Rolken 23.2% 14058 04-22-22
105 andy120195 22.5% 14190 04-22-22
106 Spinballwizard 21.6% 14363 04-22-22
107 Kogen Player Banned 21.5% 14368 04-22-22
108 Xia 21.5% 14382 04-22-22
109 f0rever_zer0 21.1% 14443 04-22-22
110 Twilisailor 21.1% 14450 04-22-22
111 Pokemonmaster888 21.0% 14468 04-22-22
112 Don 21.0% 14472 04-22-22
113 Miles9999 20.9% 14491 04-22-22
114 Cutiefox 20.8% 14498 04-22-22
115 Game_Complete 20.8% 14507 04-22-22
116 iden1 20.7% 14529 04-22-22
117 andres430 20.3% 14600 04-22-22
118 Cruizer 20.0% 14655 04-22-22
119 iSonicKid2K 19.9% 14668 04-22-22
120 SADXTryHard 19.6% 14722 04-22-22
121 GarnetPrincess 19.1% 14806 04-22-22
122 N 18.9% 14844 04-22-22
123 AxlThunder 18.7% 14888 04-22-22
124 knuckles_sonic8 18.4% 14946 04-22-22
125 Team_Yoshi 17.8% 15043 04-22-22
126 KinkyCadence 17.8% 15045 04-22-22
127 The Knuckles Chao 17.8% 15059 04-22-22
128 Termon 17.5% 15109 04-22-22
129 LittleBigness 17.4% 15132 04-22-22
130 SonicWinDX 17.2% 15155 04-22-22
131 FoxBoy 17.2% 15160 04-22-22
132 Zethor 17.1% 15178 04-22-22
133 Drakodan 16.5% 15295 04-22-22
134 Modest 16.4% 15314 04-22-22
135 Sonic Singularity 15.5% 15478 04-22-22
136 paulie9990 14.7% 15611 04-22-22
137 SilverSonic 14.2% 15713 04-22-22
138 MPit08 14.2% 15720 04-22-22
139 sonicd5 14.1% 15738 04-22-22
140 Mo Player Banned 13.8% 15792 04-22-22
141 koinu93 13.6% 15820 04-22-22
142 Cod4Scopes 13.3% 15884 04-22-22
143 HyperSonic64 13.1% 15907 04-22-22
144 booo95 13.0% 15922 04-22-22
145 Jerzia 13.0% 15925 04-22-22
146 Hunters13 13.0% 15934 04-22-22
147 Chawkk 12.8% 15968 04-22-22
148 SuperSonic101 12.7% 15987 04-22-22
149 Maxinfamily 12.6% 16006 04-22-22
150 R3FR4G 12.5% 16023 04-22-22
151 PsyBorg 12.3% 16052 04-22-22
152 Kanimayo_Jp 12.3% 16065 04-22-22
152 LilZero 12.3% 16065 04-22-22
154 Flying Fox 12.2% 16081 04-22-22
155 BrokenArthritis 12.1% 16102 04-22-22
156 Therio 11.7% 16171 04-22-22
157 sonicspeed 11.6% 16196 04-22-22
158 SonicAD 11.4% 16229 04-22-22
159 douglas 11.3% 16238 04-22-22
160 Matt_TY 11.1% 16278 04-22-22
161 thewaytodawnnn 11.1% 16286 04-22-22
162 ModifiedMonkee 11.0% 16305 04-22-22
163 Cooljay 10.5% 16389 04-22-22
164 SuperBlitzCraig 10.4% 16406 04-22-22
165 joecoolgames 10.4% 16413 04-22-22
166 SeaWolf 10.3% 16417 04-22-22
167 videogamer1014 10.1% 16457 04-22-22
168 AC-Tygo 9.9% 16496 04-22-22
169 welshmoose05 9.8% 16514 04-22-22
170 OddCook 9.7% 16541 04-22-22
171 crazy1993 9.5% 16567 04-22-22
172 TFEC Headshot 9.5% 16578 04-22-22
173 Mcshuggets 9.4% 16597 04-22-22
174 Mariobutch 9.2% 16624 04-22-22
175 niscool 9.1% 16651 04-22-22
176 Irregular Zero 9.0% 16659 04-22-22
177 nuckrieg 8.9% 16682 04-22-22
178 Shadowthegreat 8.8% 16708 04-22-22
179 superjupi 8.7% 16715 04-22-22
180 SirTobbii 8.6% 16730 04-22-22
181 sonamyfan666 8.5% 16763 04-22-22
182 Powerjohn25 8.4% 16773 04-22-22
183 iarebored 8.4% 16777 04-22-22
184 SaviourDC 8.3% 16790 04-22-22
185 SonicKnuckles 8.3% 16792 04-22-22
186 Badlex727 8.2% 16808 04-22-22
187 Werey 8.1% 16835 04-22-22
188 adf 8.0% 16851 04-22-22
189 Megaman EXE565 7.7% 16909 04-22-22
190 ArcticDragon 7.5% 16939 04-22-22
191 Platformer 7.3% 16971 04-22-22
192 timpkmn89 7.2% 16991 04-22-22
193 Swift Hobo 7.2% 17001 04-22-22
194 FocusSight64 7.1% 17006 04-22-22
195 Vicklaw 7.0% 17023 04-22-22
196 wheatrich 7.0% 17030 04-22-22
197 Rickyman48 6.9% 17057 04-22-22
198 KitsuneYamaro 6.8% 17073 04-22-22
199 Sm4sh 6.7% 17082 04-22-22
200 Triseena 6.5% 17128 04-22-22
201 Tethys 6.5% 17129 04-22-22
202 CyberShadow 6.3% 17155 04-22-22
203 Starlight Sable 6.3% 17158 04-22-22
204 Destroyer121121 6.3% 17159 04-22-22
205 slade23 6.3% 17165 04-22-22
206 dShadow 6.2% 17185 04-22-22
207 IsisDazs 6.1% 17193 04-22-22
208 BlankTH 5.9% 17236 04-22-22
209 Monkeh 5.8% 17256 04-22-22
210 SonicU260 5.6% 17287 04-22-22
211 DaDude 5.5% 17307 04-22-22
212 Swinkly 5.5% 17310 04-22-22
213 Richied 5.5% 17311 04-22-22
214 Crispian 5.5% 17313 04-22-22
215 Zip 5.3% 17335 04-22-22
216 VeritasDL 5.1% 17385 04-22-22
217 tal39h 5.0% 17397 04-22-22
218 Kirbymon30 4.9% 17408 04-22-22
219 ALundstrom10 4.9% 17409 04-22-22
220 soniccoloursunleashed 4.7% 17443 04-22-22
221 Drflash55 4.7% 17456 04-22-22
222 Bass 4.6% 17467 04-22-22
223 Yish 4.5% 17483 04-22-22
224 neaolas 4.5% 17487 04-22-22
224 zapp 4.5% 17487 04-22-22
226 ArthurVGCP 4.5% 17491 04-22-22
227 UninspiredUsername 4.4% 17499 04-22-22
228 Sonicsuperstar1 4.4% 17504 04-22-22
229 superiorsonic 4.4% 17507 04-22-22
230 gamefreak1292 4.4% 17515 04-22-22
231 Sora_yx 4.2% 17545 04-22-22
232 Chaos_Overlord 4.0% 17583 04-22-22
233 TakaRikka 3.9% 17598 04-22-22
234 Valfore 3.9% 17605 04-22-22
235 Dage4Aquatic 3.8% 17621 04-22-22
236 ShinigamiMachine 3.7% 17632 04-22-22
237 Regano1000 3.6% 17654 04-22-22
238 MK 3.5% 17670 04-22-22
239 Ace747 3.5% 17680 04-22-22
240 Jua Rever 3.3% 17710 04-22-22
241 Sithwarrior26 3.1% 17746 04-22-22
242 Illidan 3.1% 17752 04-22-22
243 HHNNBBHHN 3.1% 17754 04-22-22
243 Venick409 3.1% 17754 04-22-22
245 Brian_pso 3.0% 17761 04-22-22
246 nman36 3.0% 17762 04-22-22
247 Egor305 2.9% 17790 04-22-22
248 ingx24 2.8% 17796 04-22-22
248 TheChaosEmeraIds 2.8% 17796 04-22-22
250 Nickson98 2.8% 17805 04-22-22
251 SkyBon 2.8% 17808 04-22-22
252 dekki1234 2.7% 17810 04-22-22
253 FSSRandomvids 2.7% 17813 04-22-22
254 Fozer 2.6% 17828 04-22-22
255 sonic29887 2.6% 17835 04-22-22
256 Colomb_30 2.6% 17839 04-22-22
257 Aiko 2.6% 17841 04-22-22
257 TheUltraBlur 2.6% 17841 04-22-22
259 1stKirbyever 2.5% 17849 04-22-22
260 TimTH 2.4% 17867 04-22-22
261 Th4tN1nj4Turtl3 2.3% 17894 04-22-22
262 Cort_pso 2.2% 17903 04-22-22
263 ieatatsonic 2.2% 17909 04-22-22
264 Doom-9 2.2% 17912 04-22-22
265 Mariosonic15 2.1% 17921 04-22-22
266 MStitomix 2.1% 17933 04-22-22
267 HermitHelmet 2.1% 17937 04-22-22
268 arcfx1985 2.0% 17942 04-22-22
269 SuperSonic71087 2.0% 17955 04-22-22
270 Got4n 1.9% 17959 04-22-22
271 Artie 1.9% 17960 04-22-22
272 Jose_15 1.9% 17967 04-22-22
273 Questionguy555 1.9% 17969 04-22-22
274 djmat 1.8% 17983 04-22-22
275 SuperSonicfan9595 1.8% 17988 04-22-22
276 sonicandamy 1.7% 18008 04-22-22
277 LancexExWx 1.7% 18009 04-22-22
278 Paixii 1.6% 18013 04-22-22
279 son1cgu1tar 1.6% 18017 04-22-22
280 Heroes_Hater 1.5% 18030 04-22-22
281 BallzeH 1.5% 18035 04-22-22
282 Jamixesa 1.5% 18037 04-22-22
283 Mankster101 1.5% 18042 04-22-22
284 BecauseWarAnvil 1.5% 18045 04-22-22
285 Xandre69 1.4% 18049 04-22-22
286 Shanekilz 1.4% 18057 04-22-22
287 Crydio 1.4% 18058 04-22-22
288 SpiritDragon1995 1.4% 18061 04-22-22
289 MarewBFN 1.3% 18073 04-22-22
290 stanski 1.3% 18077 04-22-22
291 Sonique Hedgehog 1.3% 18080 04-22-22
292 Blue Infamy 1.2% 18094 04-22-22
293 p0ker 1.2% 18097 04-22-22
294 ErrortheCucco 1.1% 18105 04-22-22
295 Arthas 1.1% 18108 04-22-22
295 Rikum22 1.1% 18108 04-22-22
297 sonic1001 1.1% 18117 04-22-22
298 AJSIV 1.1% 18119 04-22-22
299 syco1098 1.0% 18123 04-22-22
300 IDGeek121 1.0% 18124 04-22-22
300 Sonic the Hedgehod16 1.0% 18124 04-22-22
302 WingedInsignia 1.0% 18126 04-22-22
303 ASINISTERTACO 1.0% 18132 04-22-22
304 sonicfan9 0.9% 18139 04-22-22
305 BlackArmsShadow 0.9% 18148 04-22-22
306 themachoman202 0.9% 18149 04-22-22
307 shadowblast63 Player Banned 0.9% 18157 04-22-22
308 Fivavoa 0.8% 18158 04-22-22
309 Mr. Jones 0.8% 18160 04-22-22
310 Greham Adelphis 0.8% 18161 04-22-22
311 Ben1502 0.8% 18162 04-22-22
311 darkstarblaze 0.8% 18162 04-22-22
311 MastaToken 0.8% 18162 04-22-22
314 TommyeAsY 0.8% 18163 04-22-22
315 FlandreScarlet9999vr 0.8% 18169 04-22-22
315 ptorflaxendrosis 0.8% 18169 04-22-22
317 Gvozdevik 0.8% 18170 04-22-22
318 Knuckles 0.8% 18174 04-22-22
318 Zeldocto 0.8% 18174 04-22-22
320 BeeAwwb 0.7% 18177 04-22-22
321 KaM Mark MaK 0.7% 18183 04-22-22
322 ShadouZaHejjihoggu 0.7% 18184 04-22-22
323 Sonic The Star 0.6% 18194 04-22-22
324 darkersupershadic 0.6% 18195 04-22-22
325 Sogeking 0.6% 18197 04-22-22
326 Sonic62 0.6% 18198 04-22-22
327 SonicK100 0.6% 18201 04-22-22
328 Sarger001 0.6% 18202 04-22-22
329 dragondragon18 0.6% 18204 04-22-22
329 Grady219 0.6% 18204 04-22-22
331 Shadygamerfreak 0.6% 18205 04-22-22
332 Jawaah 0.6% 18208 04-22-22
333 Antek 0.6% 18212 04-22-22
334 Klaus 0.5% 18214 04-22-22
334 SpinDashMaster 0.5% 18214 04-22-22
336 SilverK 0.5% 18217 04-22-22
337 BioShadow 0.5% 18222 04-22-22
338 Videogamer123 0.5% 18227 04-22-22
339 IcKY 0.5% 18230 04-22-22
340 isaihtb11 0.4% 18237 04-22-22
340 oTaiIilLsS 0.4% 18237 04-22-22
342 OhNoes! 0.4% 18242 04-22-22
343 zaktu40 0.4% 18244 04-22-22
344 Mad Andy 0.4% 18245 04-22-22
344 S-MS32X-S 0.4% 18245 04-22-22
346 gaara1234 0.4% 18247 04-22-22
347 gamed00d 0.3% 18253 04-22-22
348 Mister_Slick 0.3% 18258 04-22-22
349 Sonic06Fan 0.3% 18262 04-22-22
350 Rush Hero 0.3% 18264 04-22-22
351 ChaosNexuss 0.3% 18265 04-22-22
352 SonicMega167 0.2% 18270 04-22-22
353 sonknuck23 0.2% 18273 04-22-22
354 Iwannabelink 0.2% 18274 04-22-22
355 DanielTheFalcon 0.2% 18283 04-22-22
355 gamer1245 0.2% 18283 04-22-22
357 Burningskull123 0.1% 18289 04-22-22
358 Sonicontherun 0.1% 18301 04-22-22
359 Lil_Dude 0.1% 18303 04-22-22
360 antiwwe 0.0% 18307 04-22-22
361 Cbwade15 0.0% 18311 04-22-22
361 Genuine Hedgehog 0.0% 18311 04-22-22
363 Tyrouble 0.0% 18315 04-22-22
364 MakoHNM 0.0% 18322 04-22-22
364 MegabombBlade 0.0% 18322 04-22-22
364 neji_hyuuga 0.0% 18322 04-22-22
364 Over 0.0% 18322 04-22-22
364 sdj6707 Player Banned 0.0% 18322 04-22-22
364 Tran Sonic Fan Player Banned 0.0% 18322 04-22-22

This page is using the New Data Table System. [FUTURE]

Game ID: 3 | Category ID: 10
Hits: 82,290 | Hits This Month: 152 | DB Calls: 21 | Mem Usage: 953.23 KB | Time: 0.03s | Printable

The Sonic Center v3.9
Copyright 2003-2011 by The Sonic Center Team.